Time;durP1;ratioP1;P1;durP2;ratioP2;P2;SDS_P1;SDS_P2;PMS_P1;PMS_P2;Temp;Humidity;BMP_temperature;BMP_pressure;BME280_temperature;BME280_humidity;BME280_pressure;Samples;Min_cycle;Max_cycle;Signal;HPM_P1;HPM_P2
2021/12/09 00:01:02;;;;;;;1.02;0.68;;;9.40;90.00;;;;;;4976629;28;20211;-71
2021/12/09 00:03:34;;;;;;;1.58;0.70;;;9.50;89.90;;;;;;4976543;28;20180;-70
2021/12/09 00:06:02;;;;;;;1.20;0.50;;;9.60;89.40;;;;;;4976027;28;20561;-69
2021/12/09 00:08:29;;;;;;;1.10;0.52;;;9.60;89.30;;;;;;4976254;28;20211;-69
2021/12/09 00:10:58;;;;;;;0.70;0.50;;;9.50;89.70;;;;;;4958952;28;20200;-68
2021/12/09 00:13:25;;;;;;;0.68;0.40;;;9.60;89.80;;;;;;4976519;28;20263;-73
2021/12/09 00:15:51;;;;;;;1.17;0.50;;;9.50;89.70;;;;;;4976319;28;20224;-71
2021/12/09 00:18:17;;;;;;;2.83;0.50;;;9.60;89.90;;;;;;4976390;28;20188;-70
2021/12/09 00:20:43;;;;;;;1.20;0.60;;;9.50;90.10;;;;;;4976134;28;20204;-68
2021/12/09 00:23:09;;;;;;;1.38;0.63;;;9.40;90.40;;;;;;4976139;28;20185;-71
2021/12/09 00:25:36;;;;;;;2.33;0.40;;;9.50;90.30;;;;;;4976124;28;20231;-69
2021/12/09 00:28:02;;;;;;;2.03;0.98;;;9.50;90.30;;;;;;4976029;28;20212;-69
2021/12/09 00:30:30;;;;;;;1.23;0.75;;;9.60;90.20;;;;;;4958957;28;20735;-69
2021/12/09 00:32:57;;;;;;;2.72;1.00;;;9.60;90.20;;;;;;4975942;28;20293;-71
2021/12/09 00:35:28;;;;;;;2.55;0.75;;;9.60;90.10;;;;;;4976244;28;20585;-66
2021/12/09 00:38:02;;;;;;;1.63;0.52;;;9.60;90.10;;;;;;4975915;28;20172;-72
2021/12/09 00:40:28;;;;;;;2.20;0.75;;;9.70;90.00;;;;;;4975971;28;20201;-70
2021/12/09 00:42:54;;;;;;;2.65;0.73;;;9.70;90.10;;;;;;4975848;28;20187;-71
2021/12/09 00:45:21;;;;;;;2.08;0.65;;;9.70;90.20;;;;;;4975752;28;20183;-69
2021/12/09 00:47:47;;;;;;;2.42;0.70;;;9.70;90.00;;;;;;4958685;28;20224;-70
2021/12/09 00:50:13;;;;;;;3.58;0.70;;;9.70;90.10;;;;;;4958443;28;20200;-71
2021/12/09 00:52:39;;;;;;;1.27;0.50;;;9.70;90.10;;;;;;4975807;28;20234;-63
2021/12/09 00:55:06;;;;;;;1.58;0.75;;;9.80;90.00;;;;;;4975795;28;20176;-64
2021/12/09 00:57:32;;;;;;;4.47;0.90;;;9.70;90.00;;;;;;4975470;28;20180;-68
2021/12/09 00:59:59;;;;;;;0.82;0.70;;;9.70;90.20;;;;;;4975387;28;20667;-69
2021/12/09 01:02:25;;;;;;;2.88;0.60;;;9.70;90.20;;;;;;4957967;28;20188;-65
2021/12/09 01:04:52;;;;;;;1.15;0.60;;;9.70;90.20;;;;;;4967603;28;20230;-65
2021/12/09 01:07:18;;;;;;;1.38;0.70;;;9.60;90.20;;;;;;4975658;28;20204;-68
2021/12/09 01:09:44;;;;;;;1.38;0.60;;;9.60;90.30;;;;;;4957799;28;20643;-72
2021/12/09 01:12:10;;;;;;;2.13;0.73;;;9.70;90.30;;;;;;4975263;28;20259;-73
2021/12/09 01:14:37;;;;;;;1.17;0.80;;;9.70;90.20;;;;;;4975352;28;20196;-71
2021/12/09 01:17:08;;;;;;;1.88;0.70;;;9.60;90.30;;;;;;4974819;28;20235;-69
2021/12/09 01:19:35;;;;;;;2.80;0.77;;;9.60;90.40;;;;;;4957730;28;20624;-68
2021/12/09 01:22:01;;;;;;;1.60;0.80;;;9.50;90.40;;;;;;4975015;28;20660;-70
2021/12/09 01:24:26;;;;;;;1.65;0.85;;;9.50;90.70;;;;;;4975237;28;20180;-70
2021/12/09 01:26:52;;;;;;;2.92;1.10;;;9.50;90.70;;;;;;4974883;28;20173;-64
2021/12/09 01:29:28;;;;;;;1.77;0.75;;;9.40;90.60;;;;;;4975113;28;20231;-71
2021/12/09 01:32:00;;;;;;;0.80;0.80;;;9.60;89.00;;;;;;4967180;28;20728;-71
2021/12/09 01:34:25;;;;;;;2.03;0.73;;;9.70;88.00;;;;;;4974888;28;20180;-72
2021/12/09 01:36:51;;;;;;;1.75;0.90;;;9.60;86.10;;;;;;4975117;28;20647;-71
2021/12/09 01:39:18;;;;;;;2.15;0.82;;;9.60;85.20;;;;;;4974632;28;20208;-67
2021/12/09 01:41:44;;;;;;;1.85;0.70;;;9.60;85.20;;;;;;4974758;28;20335;-67
2021/12/09 01:44:10;;;;;;;0.85;0.65;;;9.50;85.70;;;;;;4974658;28;20680;-69
2021/12/09 01:46:36;;;;;;;2.40;0.77;;;9.40;85.00;;;;;;4957352;28;20223;-71
2021/12/09 01:49:02;;;;;;;0.80;0.77;;;9.20;86.10;;;;;;4957180;28;20223;-69
2021/12/09 01:51:28;;;;;;;0.70;0.70;;;9.30;85.70;;;;;;4974421;28;20682;-70
2021/12/09 01:53:54;;;;;;;0.82;0.82;;;9.10;85.20;;;;;;4974780;28;20189;-68
2021/12/09 01:56:23;;;;;;;0.77;0.75;;;8.90;84.20;;;;;;4974276;28;20612;-70
2021/12/09 01:58:51;;;;;;;0.95;0.80;;;9.00;84.70;;;;;;4974441;28;20188;-69
2021/12/09 02:01:17;;;;;;;0.70;0.70;;;8.80;83.40;;;;;;4974443;28;20576;-66
2021/12/09 02:03:43;;;;;;;2.30;0.90;;;8.60;83.30;;;;;;4974461;28;20208;-67
2021/12/09 02:06:09;;;;;;;1.17;0.77;;;8.50;84.80;;;;;;4974202;28;20254;-71
2021/12/09 02:08:35;;;;;;;0.95;0.95;;;8.50;84.00;;;;;;4974268;28;20222;-71
2021/12/09 02:11:01;;;;;;;2.33;0.90;;;8.50;83.60;;;;;;4974362;28;20188;-69
2021/12/09 02:13:27;;;;;;;1.08;0.90;;;8.40;83.40;;;;;;4974608;28;20259;-72
2021/12/09 02:15:55;;;;;;;1.90;1.20;;;8.30;83.60;;;;;;4973872;28;20662;-71
2021/12/09 02:18:22;;;;;;;1.38;1.08;;;8.10;84.70;;;;;;4974468;28;20177;-71
2021/12/09 02:21:12;;;;;;;1.60;1.35;;;8.10;83.30;;;;;;4974234;28;20195;-69
2021/12/09 02:23:42;;;;;;;2.00;1.10;;;8.10;83.00;;;;;;4974309;28;20172;-71
2021/12/09 02:26:08;;;;;;;1.45;1.35;;;8.00;83.40;;;;;;4974124;28;20184;-65
2021/12/09 02:28:34;;;;;;;1.20;1.10;;;7.80;84.10;;;;;;4973767;28;20683;-71
2021/12/09 02:30:59;;;;;;;1.40;1.27;;;7.80;82.20;;;;;;4973859;28;20200;-71
2021/12/09 02:33:25;;;;;;;1.48;1.35;;;7.80;81.50;;;;;;4974255;28;20172;-71
2021/12/09 02:35:51;;;;;;;1.67;1.38;;;7.70;82.20;;;;;;4973930;28;20180;-71
2021/12/09 02:38:17;;;;;;;2.15;1.50;;;7.60;81.20;;;;;;4973911;28;20195;-66
2021/12/09 02:40:43;;;;;;;2.20;1.70;;;7.50;81.70;;;;;;4973906;28;20244;-69
2021/12/09 02:43:09;;;;;;;1.95;1.80;;;7.50;81.60;;;;;;4973775;28;20188;-70
2021/12/09 02:45:36;;;;;;;1.70;1.60;;;7.40;81.70;;;;;;4974046;28;20179;-70
2021/12/09 02:48:02;;;;;;;2.08;1.85;;;7.30;81.40;;;;;;4973853;28;20223;-68
2021/12/09 02:50:28;;;;;;;2.08;1.77;;;7.40;81.50;;;;;;4973676;28;20196;-69
2021/12/09 02:52:54;;;;;;;2.53;1.70;;;7.20;81.00;;;;;;4974117;28;20243;-67
2021/12/09 02:55:19;;;;;;;2.35;1.80;;;7.10;82.10;;;;;;4973847;28;20692;-71
2021/12/09 02:57:45;;;;;;;3.13;1.90;;;7.10;81.40;;;;;;4973935;28;20179;-70
2021/12/09 03:00:12;;;;;;;2.38;1.88;;;7.10;80.70;;;;;;4973643;28;20204;-71
2021/12/09 03:02:38;;;;;;;2.13;1.88;;;7.10;80.50;;;;;;4973671;28;20219;-70
2021/12/09 03:05:07;;;;;;;2.20;2.00;;;7.10;80.10;;;;;;4956415;28;20248;-69
2021/12/09 03:07:37;;;;;;;3.22;2.15;;;6.90;79.70;;;;;;4973732;28;20215;-67
2021/12/09 03:10:23;;;;;;;3.00;1.88;;;6.80;80.80;;;;;;4973556;28;20279;-69
2021/12/09 03:12:53;;;;;;;2.88;1.92;;;6.80;80.00;;;;;;4973483;28;20173;-69
2021/12/09 03:15:20;;;;;;;2.83;1.77;;;6.80;79.80;;;;;;4974053;28;20550;-71
2021/12/09 03:17:47;;;;;;;4.38;2.10;;;6.70;80.50;;;;;;4973655;28;20183;-68
2021/12/09 03:20:15;;;;;;;2.08;1.88;;;6.60;79.60;;;;;;4973649;28;20200;-66
2021/12/09 03:22:42;;;;;;;4.13;1.80;;;6.60;79.90;;;;;;4973676;28;20188;-72
2021/12/09 03:25:10;;;;;;;1.90;1.70;;;6.50;79.20;;;;;;4973559;28;20731;-67
2021/12/09 03:27:36;;;;;;;2.08;1.88;;;6.40;80.50;;;;;;4973491;28;20283;-70
2021/12/09 03:30:04;;;;;;;2.60;1.70;;;6.30;80.00;;;;;;4956164;28;20205;-65
2021/12/09 03:32:30;;;;;;;1.65;1.50;;;6.40;80.10;;;;;;4973815;28;20207;-70
2021/12/09 03:34:56;;;;;;;2.17;1.80;;;6.50;80.80;;;;;;4973446;28;20654;-70
2021/12/09 03:37:25;;;;;;;2.13;1.50;;;6.60;80.00;;;;;;4973517;28;20192;-67
2021/12/09 03:39:52;;;;;;;2.08;1.70;;;6.50;79.20;;;;;;4966254;28;20164;-72
2021/12/09 03:42:20;;;;;;;2.33;1.90;;;6.50;79.80;;;;;;4977023;28;20722;-64
2021/12/09 03:44:48;;;;;;;1.92;1.77;;;6.50;80.40;;;;;;4976935;28;20259;-66
2021/12/09 03:47:16;;;;;;;1.85;1.35;;;6.50;80.30;;;;;;4976892;28;20301;-71
2021/12/09 03:49:42;;;;;;;1.58;1.40;;;6.60;79.80;;;;;;4976660;28;20184;-72
2021/12/09 03:52:09;;;;;;;3.17;1.90;;;6.70;80.20;;;;;;4977116;28;20191;-69
2021/12/09 03:54:35;;;;;;;2.83;1.40;;;6.70;80.50;;;;;;4959214;28;20188;-72
2021/12/09 03:57:02;;;;;;;1.98;1.73;;;6.70;80.20;;;;;;4977110;28;20169;-63
2021/12/09 03:59:28;;;;;;;2.10;1.52;;;6.70;80.90;;;;;;4976674;28;20551;-69
2021/12/09 04:01:56;;;;;;;2.05;1.17;;;6.70;80.70;;;;;;4959293;28;20291;-69
2021/12/09 04:04:23;;;;;;;2.38;1.50;;;6.70;81.50;;;;;;4976234;28;20220;-64
2021/12/09 04:06:49;;;;;;;1.60;1.42;;;6.80;80.70;;;;;;4976594;28;20609;-70
2021/12/09 04:09:18;;;;;;;1.73;1.23;;;6.70;81.10;;;;;;4976825;28;20275;-71
2021/12/09 04:11:44;;;;;;;1.30;1.20;;;6.70;80.60;;;;;;4959252;28;20204;-67
2021/12/09 04:14:09;;;;;;;1.70;1.40;;;6.60;80.10;;;;;;4959277;28;20180;-72
2021/12/09 04:16:36;;;;;;;1.52;1.38;;;6.60;79.80;;;;;;4976669;28;20208;-71
2021/12/09 04:19:05;;;;;;;2.22;1.90;;;6.50;79.80;;;;;;4976299;28;20179;-66
2021/12/09 04:21:32;;;;;;;2.30;2.10;;;6.50;78.80;;;;;;4976301;28;20255;-72
2021/12/09 04:23:58;;;;;;;2.63;2.05;;;6.30;79.60;;;;;;4976245;28;20207;-69
2021/12/09 04:26:24;;;;;;;2.83;2.08;;;6.20;80.30;;;;;;4976438;28;20176;-66
2021/12/09 04:28:50;;;;;;;2.92;2.10;;;6.20;80.40;;;;;;4976147;28;20215;-72
2021/12/09 04:31:17;;;;;;;3.28;2.15;;;6.10;79.70;;;;;;4975943;28;20228;-70
2021/12/09 04:33:43;;;;;;;1.95;1.83;;;6.20;79.90;;;;;;4976090;28;20180;-63
2021/12/09 04:36:10;;;;;;;2.85;2.15;;;6.20;79.70;;;;;;4976060;28;20176;-61
2021/12/09 04:38:36;;;;;;;2.83;2.28;;;6.10;79.60;;;;;;4976051;28;20176;-62
2021/12/09 04:41:02;;;;;;;2.78;1.90;;;6.10;79.40;;;;;;4976171;28;20200;-71
2021/12/09 04:43:28;;;;;;;3.05;1.92;;;6.20;80.20;;;;;;4975835;28;20927;-71
2021/12/09 04:45:54;;;;;;;2.70;2.08;;;6.20;79.70;;;;;;4975839;28;20184;-71
2021/12/09 04:48:19;;;;;;;3.10;2.22;;;6.10;79.20;;;;;;4975507;28;20211;-70
2021/12/09 04:50:46;;;;;;;3.28;2.60;;;6.00;79.50;;;;;;4975649;28;20203;-70
2021/12/09 04:53:12;;;;;;;3.13;2.40;;;6.00;81.10;;;;;;4975895;28;20195;-69
2021/12/09 04:55:38;;;;;;;3.05;2.42;;;6.10;80.70;;;;;;4975509;28;20176;-69
2021/12/09 04:58:07;;;;;;;3.05;2.33;;;6.00;80.10;;;;;;4975633;28;20542;-71
2021/12/09 05:00:37;;;;;;;3.55;2.75;;;5.90;80.10;;;;;;4975398;28;20291;-70
2021/12/09 05:03:08;;;;;;;2.80;2.00;;;5.90;80.00;;;;;;4975583;28;20212;-72
2021/12/09 05:05:38;;;;;;;4.20;2.40;;;5.90;79.20;;;;;;4975248;28;20232;-72
2021/12/09 05:08:06;;;;;;;4.32;2.95;;;5.90;78.90;;;;;;4975456;28;20211;-69
2021/12/09 05:10:40;;;;;;;3.75;2.65;;;5.90;79.70;;;;;;4975915;28;20195;-70
2021/12/09 05:13:05;;;;;;;3.45;2.83;;;5.80;79.90;;;;;;4975304;28;20176;-67
2021/12/09 05:15:34;;;;;;;3.83;2.80;;;5.70;79.80;;;;;;4980719;28;20573;-64
2021/12/09 05:17:59;;;;;;;3.40;2.63;;;5.70;79.60;;;;;;4978498;28;20172;-71
2021/12/09 05:20:25;;;;;;;3.15;2.40;;;5.80;80.10;;;;;;4981277;28;20216;-70
2021/12/09 05:22:51;;;;;;;3.92;2.83;;;5.70;79.80;;;;;;4978517;28;20168;-70
2021/12/09 05:25:17;;;;;;;3.72;2.67;;;5.70;79.50;;;;;;4975162;28;20235;-70
2021/12/09 05:27:42;;;;;;;3.17;2.65;;;5.80;79.20;;;;;;4975099;28;20539;-69
2021/12/09 05:30:12;;;;;;;3.47;2.70;;;5.80;79.30;;;;;;4974979;28;20294;-69
2021/12/09 05:32:38;;;;;;;2.88;2.47;;;5.80;78.90;;;;;;4975099;28;20221;-71
2021/12/09 05:35:05;;;;;;;3.80;2.70;;;5.80;78.30;;;;;;4974928;28;20624;-72
2021/12/09 05:37:31;;;;;;;4.10;2.78;;;5.70;78.50;;;;;;4974969;28;20231;-63
2021/12/09 05:39:59;;;;;;;3.30;3.00;;;5.80;78.80;;;;;;4975058;28;20283;-69
2021/12/09 05:42:26;;;;;;;5.00;2.90;;;5.90;79.00;;;;;;4974639;28;20624;-68
2021/12/09 05:44:53;;;;;;;4.10;2.40;;;5.70;79.00;;;;;;4967120;28;20177;-70
2021/12/09 05:47:19;;;;;;;3.58;2.75;;;5.80;79.00;;;;;;4974714;28;20543;-63
2021/12/09 05:49:47;;;;;;;3.55;2.72;;;5.80;79.00;;;;;;4974881;28;20180;-68
2021/12/09 05:52:14;;;;;;;4.28;2.80;;;5.80;79.10;;;;;;4974791;28;20176;-65
2021/12/09 05:54:40;;;;;;;4.55;2.33;;;5.70;78.80;;;;;;4974516;28;20235;-66
2021/12/09 05:57:06;;;;;;;3.22;2.25;;;5.70;78.90;;;;;;4974770;28;20713;-66
2021/12/09 05:59:31;;;;;;;2.33;2.13;;;5.70;78.80;;;;;;4974551;28;20176;-63
2021/12/09 06:01:58;;;;;;;3.53;2.40;;;5.80;79.30;;;;;;4974596;28;20280;-62
2021/12/09 06:04:24;;;;;;;3.92;2.17;;;5.70;78.90;;;;;;4974103;28;20216;-62
2021/12/09 06:06:50;;;;;;;4.18;2.58;;;5.70;79.00;;;;;;4974357;28;20191;-63
2021/12/09 06:09:16;;;;;;;3.55;2.30;;;5.70;79.20;;;;;;4974347;28;20200;-62
2021/12/09 06:11:46;;;;;;;2.15;1.90;;;5.70;78.70;;;;;;4974080;28;20215;-71
2021/12/09 06:14:13;;;;;;;2.70;2.05;;;5.70;78.60;;;;;;4974737;28;20534;-69
2021/12/09 06:16:39;;;;;;;3.00;2.30;;;5.60;78.90;;;;;;4974514;28;20191;-65
2021/12/09 06:19:05;;;;;;;2.97;2.15;;;5.70;80.10;;;;;;4974065;28;20180;-63
2021/12/09 06:21:31;;;;;;;2.97;2.20;;;5.60;79.70;;;;;;4974373;28;20250;-65
2021/12/09 06:24:02;;;;;;;2.40;2.20;;;5.70;79.60;;;;;;4974127;28;20263;-62
2021/12/09 06:26:30;;;;;;;3.28;2.42;;;5.70;78.90;;;;;;4974417;28;20176;-65
2021/12/09 06:28:56;;;;;;;2.70;2.00;;;5.80;79.20;;;;;;4974103;28;20208;-65
2021/12/09 06:31:22;;;;;;;3.75;2.13;;;5.80;79.20;;;;;;4974067;28;20196;-66
2021/12/09 06:33:48;;;;;;;1.92;1.80;;;5.80;79.20;;;;;;4974266;28;20183;-68
2021/12/09 06:36:14;;;;;;;2.47;2.25;;;5.80;78.80;;;;;;4973685;28;20194;-62
2021/12/09 06:38:40;;;;;;;4.35;2.30;;;5.80;79.30;;;;;;4974182;28;20172;-65
2021/12/09 06:41:08;;;;;;;2.03;1.80;;;5.80;79.70;;;;;;4973958;28;20727;-69
2021/12/09 06:43:40;;;;;;;2.40;2.20;;;5.90;79.00;;;;;;4973835;28;20180;-70
2021/12/09 06:46:07;;;;;;;3.08;2.05;;;5.90;78.40;;;;;;4974086;28;20200;-63
2021/12/09 06:48:34;;;;;;;2.70;1.73;;;5.70;77.00;;;;;;4973683;28;20714;-64
2021/12/09 06:51:04;;;;;;;2.42;1.90;;;5.80;78.60;;;;;;4974004;28;20611;-65
2021/12/09 06:53:30;;;;;;;3.28;2.40;;;5.80;77.70;;;;;;4974137;28;20172;-62
2021/12/09 06:55:56;;;;;;;2.75;1.95;;;6.40;82.80;;;;;;4974036;28;20589;-60
2021/12/09 06:58:23;;;;;;;2.38;1.80;;;6.60;77.10;;;;;;4956867;28;20211;-61
2021/12/09 07:00:51;;;;;;;2.58;2.00;;;6.70;76.20;;;;;;4973045;28;20602;-64
2021/12/09 07:03:17;;;;;;;2.22;1.95;;;6.70;75.10;;;;;;4956184;28;20204;-68
2021/12/09 07:05:44;;;;;;;1.73;1.55;;;6.70;75.00;;;;;;4973738;28;20279;-68
2021/12/09 07:08:11;;;;;;;1.80;1.65;;;6.80;73.60;;;;;;4974145;28;20578;-67
2021/12/09 07:10:38;;;;;;;1.80;1.60;;;6.70;72.60;;;;;;4973988;28;20742;-66
2021/12/09 07:13:05;;;;;;;2.15;1.70;;;6.60;72.60;;;;;;4974776;28;20184;-70
2021/12/09 07:15:32;;;;;;;1.58;1.48;;;6.20;74.30;;;;;;4980672;28;20165;-67
2021/12/09 07:17:59;;;;;;;2.17;1.85;;;6.10;75.40;;;;;;4982406;28;20181;-70
2021/12/09 07:20:27;;;;;;;2.08;1.83;;;6.10;76.30;;;;;;4983011;28;20224;-62
2021/12/09 07:22:54;;;;;;;1.88;1.70;;;6.00;75.80;;;;;;4974927;28;20168;-61
2021/12/09 07:25:22;;;;;;;2.63;2.05;;;6.10;75.10;;;;;;4981724;28;20237;-62
2021/12/09 07:27:48;;;;;;;2.50;2.30;;;6.00;76.40;;;;;;4977113;28;20196;-62
2021/12/09 07:30:16;;;;;;;3.05;2.00;;;5.90;76.90;;;;;;4976879;28;20656;-62
2021/12/09 07:32:43;;;;;;;1.90;1.80;;;5.90;77.90;;;;;;4976861;28;20184;-61
2021/12/09 07:35:09;;;;;;;2.33;1.88;;;6.00;77.40;;;;;;4976830;28;20224;-61
2021/12/09 07:37:37;;;;;;;1.98;1.77;;;5.90;78.10;;;;;;4977275;28;20192;-68
2021/12/09 07:40:08;;;;;;;5.28;2.45;;;5.90;78.00;;;;;;4976851;28;20192;-64
2021/12/09 07:42:35;;;;;;;2.78;1.70;;;5.80;78.90;;;;;;4977059;28;20551;-61
2021/12/09 07:45:01;;;;;;;2.70;1.90;;;5.80;78.60;;;;;;4976713;28;20160;-63
2021/12/09 07:47:27;;;;;;;2.60;1.90;;;5.80;78.10;;;;;;4976666;28;20179;-60
2021/12/09 07:49:53;;;;;;;3.25;2.08;;;5.70;79.10;;;;;;4976469;28;20176;-61
2021/12/09 07:52:19;;;;;;;2.17;1.90;;;5.70;80.10;;;;;;4976751;28;20640;-64
2021/12/09 07:54:44;;;;;;;2.90;1.88;;;5.60;80.30;;;;;;4976533;28;20188;-63
2021/12/09 07:57:10;;;;;;;3.95;1.95;;;5.60;80.00;;;;;;4976737;28;20255;-68
2021/12/09 07:59:36;;;;;;;3.20;2.30;;;5.50;80.50;;;;;;4976385;28;20701;-59
2021/12/09 08:02:03;;;;;;;3.78;2.13;;;5.40;80.80;;;;;;4976769;28;20286;-60
2021/12/09 08:04:29;;;;;;;2.50;1.90;;;5.50;80.70;;;;;;4959596;28;20224;-63
2021/12/09 08:06:56;;;;;;;3.70;2.40;;;5.60;80.30;;;;;;4976369;28;20632;-62
2021/12/09 08:09:22;;;;;;;2.53;2.15;;;5.60;80.60;;;;;;4959061;28;20307;-63
2021/12/09 08:11:47;;;;;;;2.10;1.80;;;5.60;80.00;;;;;;4976277;28;20283;-74
2021/12/09 08:14:16;;;;;;;5.63;3.00;;;5.60;80.80;;;;;;4976486;28;20176;-74
2021/12/09 08:16:42;;;;;;;3.33;2.33;;;5.60;79.90;;;;;;4976933;28;20235;-72
2021/12/09 08:19:09;;;;;;;2.38;2.00;;;5.60;80.80;;;;;;4959786;28;20191;-77
2021/12/09 08:21:38;;;;;;;2.83;2.05;;;5.60;80.90;;;;;;4976616;28;20540;-71
2021/12/09 08:24:08;;;;;;;2.67;2.00;;;5.50;80.60;;;;;;4976356;28;20188;-67
2021/12/09 08:26:34;;;;;;;2.53;1.85;;;5.60;80.40;;;;;;4975800;28;20172;-73
2021/12/09 08:29:01;;;;;;;2.97;2.00;;;5.60;79.60;;;;;;4975891;28;20298;-72
2021/12/09 08:31:29;;;;;;;2.90;2.35;;;5.60;79.90;;;;;;4976067;28;20195;-71
2021/12/09 08:33:55;;;;;;;3.72;1.98;;;5.60;79.50;;;;;;4975995;28;20591;-66
2021/12/09 08:36:21;;;;;;;2.53;2.10;;;5.60;79.60;;;;;;4975939;28;20169;-65
2021/12/09 08:38:47;;;;;;;4.32;2.92;;;5.60;79.00;;;;;;4976008;28;20279;-69
2021/12/09 08:41:18;;;;;;;3.45;2.58;;;5.50;80.20;;;;;;4975628;28;20555;-65
2021/12/09 08:43:44;;;;;;;5.55;2.33;;;5.60;79.90;;;;;;4975826;28;20247;-66
2021/12/09 08:46:10;;;;;;;3.05;2.10;;;5.60;79.80;;;;;;4975747;28;20180;-70
2021/12/09 08:48:35;;;;;;;3.00;2.28;;;5.60;80.60;;;;;;4975463;28;20266;-63
2021/12/09 08:51:01;;;;;;;3.10;2.60;;;5.60;80.50;;;;;;4975742;28;20200;-66
2021/12/09 08:53:28;;;;;;;2.53;2.13;;;5.60;80.80;;;;;;4976283;28;20195;-74
2021/12/09 08:55:54;;;;;;;2.17;1.98;;;5.60;80.30;;;;;;4975990;28;20183;-70
2021/12/09 08:58:21;;;;;;;2.88;2.38;;;5.60;80.00;;;;;;4975742;28;20636;-72
2021/12/09 09:00:51;;;;;;;3.15;2.30;;;5.60;80.60;;;;;;4975158;28;20762;-69
2021/12/09 09:03:17;;;;;;;1.92;1.75;;;5.60;80.50;;;;;;4975527;28;20204;-68
2021/12/09 09:05:43;;;;;;;1.95;1.75;;;5.50;80.10;;;;;;4975309;28;20230;-73
2021/12/09 09:08:09;;;;;;;2.35;1.90;;;5.40;80.50;;;;;;4975430;28;20212;-67
2021/12/09 09:10:39;;;;;;;2.35;1.90;;;5.50;80.80;;;;;;4978360;28;20223;-59
2021/12/09 09:13:05;;;;;;;2.35;1.80;;;5.60;81.00;;;;;;4982241;28;20282;-59
2021/12/09 09:15:31;;;;;;;2.72;1.85;;;5.50;81.40;;;;;;4978596;28;20707;-61
2021/12/09 09:17:58;;;;;;;2.53;2.30;;;5.60;81.00;;;;;;4977075;28;20553;-62
2021/12/09 09:20:27;;;;;;;3.00;1.90;;;5.50;81.70;;;;;;4978250;28;20291;-59
2021/12/09 09:22:53;;;;;;;2.70;2.15;;;5.70;81.90;;;;;;4967707;28;20195;-63
2021/12/09 09:25:28;;;;;;;2.38;1.92;;;5.70;81.30;;;;;;4974905;28;20735;-63
2021/12/09 09:27:54;;;;;;;2.33;1.70;;;5.70;81.50;;;;;;4975159;28;20212;-62
2021/12/09 09:30:20;;;;;;;2.55;1.80;;;5.70;81.10;;;;;;4974902;28;20208;-59
2021/12/09 09:32:47;;;;;;;2.30;1.88;;;5.70;80.70;;;;;;4975299;28;20210;-58
2021/12/09 09:35:14;;;;;;;2.50;1.88;;;5.60;81.00;;;;;;4975401;28;20180;-63
2021/12/09 09:37:40;;;;;;;1.50;1.40;;;5.60;81.20;;;;;;4976847;28;20187;-63
2021/12/09 09:40:12;;;;;;;2.33;1.60;;;5.50;80.80;;;;;;4980426;28;20196;-60
2021/12/09 09:45:05;;;;;;;1.75;1.65;;;5.60;81.50;;;;;;4975576;28;20187;-62
2021/12/09 09:47:32;;;;;;;4.50;2.22;;;5.40;81.20;;;;;;4974942;28;20172;-68
2021/12/09 09:49:58;;;;;;;1.85;1.55;;;5.50;82.50;;;;;;4958076;28;20683;-61
2021/12/09 09:52:24;;;;;;;2.17;1.85;;;5.40;81.80;;;;;;4974960;28;20204;-63
2021/12/09 09:54:54;;;;;;;2.30;1.83;;;5.40;81.70;;;;;;4974892;28;20595;-63
2021/12/09 09:57:20;;;;;;;1.70;1.58;;;5.40;81.60;;;;;;4975151;28;20567;-65
2021/12/09 09:59:46;;;;;;;2.17;1.88;;;5.40;81.70;;;;;;4974346;28;20191;-62
2021/12/09 10:02:12;;;;;;;2.72;1.85;;;5.40;81.50;;;;;;4974552;28;20176;-63
2021/12/09 10:04:47;;;;;;;2.38;1.83;;;5.40;81.60;;;;;;4974088;28;20573;-59
2021/12/09 10:07:19;;;;;;;1.95;1.75;;;5.40;81.00;;;;;;4974536;28;20184;-64
2021/12/09 10:09:46;;;;;;;1.95;1.80;;;5.30;81.60;;;;;;4974462;28;20598;-69
2021/12/09 10:12:12;;;;;;;7.57;4.85;;;5.30;82.00;;;;;;4974327;28;20271;-63
2021/12/09 10:14:39;;;;;;;3.35;2.53;;;5.40;82.90;;;;;;4974299;28;20211;-63
2021/12/09 10:17:08;;;;;;;13.27;6.22;;;5.30;81.90;;;;;;4974116;28;20172;-67
2021/12/09 10:19:40;;;;;;;7.22;3.92;;;5.40;82.70;;;;;;4974418;28;20174;-68
2021/12/09 10:22:31;;;;;;;3.67;2.75;;;5.60;82.00;;;;;;4974217;28;20176;-67
2021/12/09 10:24:59;;;;;;;2.00;1.80;;;5.40;81.00;;;;;;4965273;28;20259;-67
2021/12/09 10:27:32;;;;;;;2.58;2.25;;;5.30;81.30;;;;;;4974192;28;20214;-69
2021/12/09 10:30:06;;;;;;;3.85;2.00;;;5.40;82.60;;;;;;4974094;28;20228;-69
2021/12/09 10:32:34;;;;;;;1.75;1.65;;;5.60;82.10;;;;;;4974016;28;20538;-67
2021/12/09 10:35:12;;;;;;;2.08;1.90;;;5.40;81.50;;;;;;4974252;28;20184;-70
2021/12/09 10:37:40;;;;;;;2.97;2.10;;;5.50;81.60;;;;;;4974266;28;20203;-68
2021/12/09 10:40:14;;;;;;;2.25;1.85;;;5.50;83.10;;;;;;4973857;28;20243;-62
2021/12/09 10:42:43;;;;;;;2.42;2.05;;;5.50;80.40;;;;;;4974046;28;20638;-69
2021/12/09 10:45:20;;;;;;;2.80;2.08;;;5.30;82.10;;;;;;4974122;28;20590;-68
2021/12/09 10:48:10;;;;;;;1.85;1.75;;;5.50;81.50;;;;;;4973901;28;20562;-67
2021/12/09 10:50:53;;;;;;;2.90;2.47;;;5.20;80.70;;;;;;4946468;28;20241;-60
2021/12/09 10:55:49;;;;;;;4.78;3.67;;;5.40;80.80;;;;;;4977635;28;20196;-62
2021/12/09 10:58:21;;;;;;;2.15;1.95;;;5.50;81.00;;;;;;4977904;28;20608;-70
2021/12/09 11:00:52;;;;;;;2.08;1.80;;;5.30;81.60;;;;;;4960983;28;20200;-71
2021/12/09 11:03:25;;;;;;;2.30;1.95;;;5.40;81.50;;;;;;4977909;28;20256;-68
2021/12/09 11:06:04;;;;;;;3.30;2.10;;;5.40;80.50;;;;;;4969711;28;20238;-63
2021/12/09 11:08:32;;;;;;;3.03;2.40;;;5.30;81.10;;;;;;4977576;28;20671;-65
2021/12/09 11:11:13;;;;;;;1.77;1.67;;;5.30;82.70;;;;;;4977357;28;20291;-62
2021/12/09 11:13:40;;;;;;;2.30;2.00;;;5.40;82.10;;;;;;4977724;28;20176;-70
2021/12/09 11:16:07;;;;;;;2.38;2.15;;;5.40;82.10;;;;;;4977879;28;20223;-70
2021/12/09 11:18:41;;;;;;;2.20;2.10;;;5.40;82.60;;;;;;4977997;28;20219;-70
2021/12/09 11:21:29;;;;;;;3.88;2.53;;;5.40;82.30;;;;;;4977752;28;20332;-71
2021/12/09 11:24:05;;;;;;;2.30;2.10;;;5.40;82.20;;;;;;4970643;28;20231;-71
2021/12/09 11:29:17;;;;;;;3.83;2.20;;;5.30;81.80;;;;;;4996150;28;20215;-68
2021/12/09 11:34:55;;;;;;;4.35;2.33;;;5.30;82.30;;;;;;4996044;28;20536;-72
2021/12/09 11:40:19;;;;;;;2.40;2.20;;;5.40;83.00;;;;;;4980056;28;20180;-77
2021/12/09 11:42:50;;;;;;;3.15;2.40;;;5.40;82.00;;;;;;4995965;28;20331;-71
2021/12/09 11:45:21;;;;;;;2.60;2.40;;;5.50;82.00;;;;;;4995557;28;20180;-68
2021/12/09 11:47:49;;;;;;;2.67;2.40;;;5.60;82.40;;;;;;4995729;28;20604;-62
2021/12/09 11:50:37;;;;;;;2.72;2.40;;;5.60;81.00;;;;;;4995578;28;20214;-69
2021/12/09 11:53:07;;;;;;;4.20;2.40;;;5.60;81.00;;;;;;4995279;28;20172;-64
2021/12/09 11:55:45;;;;;;;3.25;2.33;;;5.60;79.60;;;;;;4994970;28;20191;-73
2021/12/09 11:58:21;;;;;;;2.83;2.47;;;5.50;82.20;;;;;;4995410;28;20167;-66
2021/12/09 12:07:12;;;;;;;2.92;2.38;;;5.30;81.30;;;;;;4995606;28;20198;-68
2021/12/09 12:12:48;;;;;;;2.60;2.40;;;5.40;80.90;;;;;;4995535;28;20167;-69
2021/12/09 12:21:43;;;;;;;2.30;2.10;;;5.60;79.10;;;;;;4951544;28;20314;-68
2021/12/09 12:27:37;;;;;;;3.30;2.92;;;5.70;80.00;;;;;;4995026;28;20186;-71
2021/12/09 12:40:59;;;;;;;3.38;2.08;;;5.70;79.30;;;;;;4994716;28;20195;-69
2021/12/09 12:43:45;;;;;;;3.13;2.63;;;5.70;78.60;;;;;;4994725;28;20191;-70
2021/12/09 12:47:16;;;;;;;2.63;2.30;;;5.60;80.10;;;;;;4994693;28;20172;-64
2021/12/09 12:52:16;;;;;;;3.97;2.47;;;5.80;79.40;;;;;;4995085;28;20203;-67
2021/12/09 12:54:54;;;;;;;5.53;4.13;;;5.70;79.70;;;;;;4994567;28;20520;-70
2021/12/09 12:57:34;;;;;;;2.80;2.60;;;5.70;80.00;;;;;;4994643;28;20167;-67
2021/12/09 13:00:18;;;;;;;2.92;2.40;;;5.80;79.90;;;;;;4994333;28;20218;-60
2021/12/09 13:03:08;;;;;;;3.92;2.72;;;5.80;78.90;;;;;;4994450;28;20245;-62
2021/12/09 13:08:45;;;;;;;4.18;2.80;;;5.80;78.60;;;;;;4994448;28;20207;-61
2021/12/09 13:11:18;;;;;;;3.70;2.92;;;5.80;79.20;;;;;;4994170;28;20219;-61
2021/12/09 13:14:02;;;;;;;3.67;2.28;;;5.80;79.40;;;;;;4994497;28;20664;-63
2021/12/09 13:19:29;;;;;;;2.28;2.00;;;6.10;77.10;;;;;;4994499;28;20187;-59
2021/12/09 13:22:01;;;;;;;2.88;2.42;;;6.10;77.50;;;;;;4997475;28;20200;-62
2021/12/09 13:25:17;;;;;;;2.42;2.22;;;6.00;76.90;;;;;;5000524;28;20416;-61
2021/12/09 13:27:58;;;;;;;4.57;2.40;;;6.00;76.50;;;;;;4999347;28;20184;-60
2021/12/09 13:39:10;;;;;;;8.30;3.00;;;6.00;76.00;;;;;;4993790;28;20226;-62
2021/12/09 13:55:21;;;;;;;2.60;1.95;;;6.00;77.20;;;;;;4993562;28;20210;-63
2021/12/09 13:57:59;;;;;;;2.55;2.08;;;6.10;77.40;;;;;;4993413;28;20191;-65
2021/12/09 14:00:24;;;;;;;1.90;1.80;;;6.10;76.70;;;;;;4975988;28;20192;-67
2021/12/09 14:03:00;;;;;;;2.80;2.45;;;6.10;76.90;;;;;;4993464;28;20179;-68
2021/12/09 14:05:36;;;;;;;2.72;1.85;;;6.00;76.50;;;;;;4993417;28;20230;-67
2021/12/09 14:08:06;;;;;;;1.85;1.75;;;6.00;76.40;;;;;;4993356;28;20215;-67
2021/12/09 14:10:35;;;;;;;2.22;2.00;;;6.20;75.30;;;;;;4993893;28;20196;-68
2021/12/09 14:13:06;;;;;;;2.30;1.90;;;6.20;75.30;;;;;;4993814;28;20239;-68
2021/12/09 14:15:43;;;;;;;4.78;1.83;;;6.20;76.00;;;;;;4990792;28;20176;-64
2021/12/09 14:18:20;;;;;;;3.03;2.50;;;6.20;75.30;;;;;;4983629;28;20536;-69
2021/12/09 14:20:47;;;;;;;2.72;1.77;;;6.20;75.40;;;;;;4988980;28;20261;-68